Freeport, Indiana
Current Conditions -  °F | °C
As of 8:53 AM on Monday 20 Oct 2014 (Local Time) from KGEZ Reporting Station
Broken Clouds Broken Clouds  
Wind Chill: 50°   Ceiling: 10000
Heat Index: 50°   Visibility: 10mi
Dew Point: 44°   Wind: 13mph
Humidity: 80%   Direction: 190°S
Pressure: 29.95"   Gusts: NA
Location:  39.6624°N, 85.6838°W
Report Text: KGEZ 201253Z AUTO 19011KT 10SM BKN100 10/07 A2995 RMK AO2 SLP145 T01000067
Loading
Personal Weather Stations






























Interactive Weather Map
Tropical Storm Tracking
New forecast layout! Learn more

10-Day Weather Forecast

Advertisements
Track Severe Weather on mobile